This is the latest recevied weather packets stored in our database for station/object SP3PDK-1. If no packets are shown the sender has not sent any weather packets the latest 10 day(s).
| Time | Temp. | Humidity | Pressure | Rain* | Wind** | Luminosity | Snow |
|---|---|---|---|---|---|---|---|
| 1777381458 | 15° C | 22% | 1024.7 hPa | - | - | - | - |
| 1777380254 | 15° C | 23% | 1024.6 hPa | - | - | - | - |
| 1777379654 | 16.11° C | 23% | 1024.6 hPa | - | - | - | - |
| 1777379058 | 15° C | 23% | 1024.9 hPa | - | - | - | - |
| 1777378458 | 15° C | 23% | 1024.8 hPa | - | - | - | - |
| 1777377858 | 15° C | 24% | 1024.7 hPa | - | - | - | - |
| 1777377254 | 14.44° C | 23% | 1025 hPa | - | - | - | - |
| 1777376658 | 14.44° C | 23% | 1025.1 hPa | - | - | - | - |
| 1777376054 | 14.44° C | 24% | 1025 hPa | - | - | - | - |
| 1777375458 | 14.44° C | 24% | 1025.1 hPa | - | - | - | - |
| 1777374854 | 15° C | 23% | 1025 hPa | - | - | - | - |
| 1777374254 | 15.56° C | 24% | 1025.1 hPa | - | - | - | - |
| 1777373658 | 13.89° C | 25% | 1025.2 hPa | - | - | - | - |
| 1777372454 | 14.44° C | 26% | 1025.1 hPa | - | - | - | - |
| 1777371858 | 13.89° C | 25% | 1025.3 hPa | - | - | - | - |
| 1777371254 | 13.33° C | 26% | 1025.4 hPa | - | - | - | - |
| 1777370056 | 12.78° C | 27% | 1025.5 hPa | - | - | - | - |
| 1777368856 | 12.78° C | 27% | 1025.6 hPa | - | - | - | - |
| 1777368255 | 12.78° C | 28% | 1025.6 hPa | - | - | - | - |
| 1777367657 | 13.33° C | 27% | 1025.5 hPa | - | - | - | - |
| 1777367054 | 12.78° C | 28% | 1025.6 hPa | - | - | - | - |
| 1777366458 | 12.22° C | 29% | 1025.6 hPa | - | - | - | - |
| 1777365858 | 11.67° C | 30% | 1025.7 hPa | - | - | - | - |
| 1777365253 | 12.22° C | 29% | 1025.5 hPa | - | - | - | - |
| 1777364658 | 11.67° C | 30% | 1025.6 hPa | - | - | - | - |
* Rain since midnight (hover to see other rain measurements)
** Current wind speed in m/s (hover to see current wind gust speed)